Airfield :
LOGIN :

Register | Disclaimer

   EN    FR    IT 

 










Legend :    VFR   Marginal VFR   IFR   Intensive IFR   Very Intensive IFR
Visi :
Ceiling :
>= 8 km
>= 3000ft
5 to 8 km
1000 to 3000 ft
1500m to 5 km
500 to 1000 ft
800 to 1500m
200 to 500 ft
< 800m
< 200 ft
Symbols :   Thunderstorms  Fog  Heavy snow  Heavy precipitations  Wind > 20 kt
SIGMETs :     Misc.  Thunderstorms  Icing  Turbulence  Mountain Waves  Volcanic Ashes







- Airport Elevation : 622 ft
- IATA code : BRS
- Download approach charts


EGGD - Bristol Int.

CURRENT METAR :
  • 160820Z AUTO 22011KT 9999 BKN008 OVC015 08/08 Q1005

EXPIRED METARs :
  • 160750Z AUTO 22009KT 9999 -RA BKN008 BKN015 OVC019 08/08 Q1005 RERA REDZ
  • 160720Z AUTO 23011KT 9999 OVC008 08/08 Q1005
  • 160650Z AUTO 22012KT 9999 SCT007 OVC011 08/08 Q1006
  • 160620Z AUTO 21012KT 9999 OVC006 08/08 Q1006
  • 160550Z AUTO 21010KT 9999 OVC006 08/08 Q1006

TAF TAF EGGD
Valid from the 16 at 06:00 until the 17 at 06:00 UTC


160459Z 1606/1706 21012KT 9999 SCT025
TEMPO 1606/1611 BKN008
PROB30
TEMPO 1606/1611 21015G25KT 2000 DZ BKN004
BECMG 1611/1613 27012KT
TEMPO 1611/1614 6000 RA BKN008
PROB30
TEMPO 1611/1613 25015G25KT 3000 +RA BKN004
BECMG 1615/1618 20005KT
TEMPO 1618/1706 7000 SHRA BKN006
BECMG 1620/1623 27012KT
TEMPO 1623/1706 29015G25KT
ATIS : +44 1275 473 666
No reported NOTAMs for that airfield.



MET'MAP, your aeronautical weather chart ! - Copyright ORBIFLY December 2007 - Disclaimer

ORBIFLY MET'MAP TEAM :

Programming & Development : Alexandra Zaïnal
Concept & Development : Baudouin d'Aumeries
Co-Development & Prog : Marc-Olivier Méhu
Technical & hardware support : Manuel Goepfert

Contact : metmap@orbifly.com




SOURCES & CREDITS :

   NOAA